createdAt,value
2018-08-23T00:04:50.602Z,3.17
2018-08-23T00:09:54.085Z,2.90
2018-08-23T00:14:57.607Z,3.20
2018-08-23T00:20:01.416Z,2.67
2018-08-23T00:25:05.157Z,3.67
2018-08-23T00:30:11.410Z,2.90
2018-08-23T00:35:20.041Z,3.50
2018-08-23T00:40:23.489Z,2.92
2018-08-23T00:45:27.000Z,2.95
2018-08-23T00:51:04.074Z,3.08
2018-08-23T00:56:16.433Z,3.50
2018-08-23T01:01:19.926Z,2.85
2018-08-23T01:06:25.597Z,3.37
2018-08-23T01:11:29.087Z,3.27
2018-08-23T01:16:32.624Z,2.98
2018-08-23T01:21:55.673Z,3.20
2018-08-23T01:26:59.157Z,3.08
2018-08-23T01:32:14.306Z,2.95
2018-08-23T01:37:33.415Z,2.65
2018-08-23T01:42:38.156Z,2.92
2018-08-23T01:47:46.881Z,3.02
2018-08-23T01:52:52.817Z,2.80
2018-08-23T01:57:56.444Z,3.02
2018-08-23T02:03:01.338Z,3.35
2018-08-23T02:08:04.847Z,2.90
2018-08-23T02:13:14.634Z,3.02
2018-08-23T02:18:18.076Z,3.02
2018-08-23T02:23:21.638Z,3.20
2018-08-23T02:28:25.346Z,2.85
2018-08-23T02:33:28.853Z,2.98
2018-08-23T02:38:32.517Z,3.12
2018-08-23T02:43:36.065Z,2.90
2018-08-23T02:48:39.524Z,3.08
2018-08-23T02:53:44.355Z,3.33
2018-08-23T02:59:04.435Z,3.20
2018-08-23T03:04:12.503Z,3.00
2018-08-23T03:09:16.170Z,2.85
2018-08-23T03:14:21.034Z,2.52
2018-08-23T03:19:24.502Z,2.98
2018-08-23T03:24:28.278Z,3.42
2018-08-23T03:29:31.741Z,3.05
2018-08-23T03:34:35.249Z,3.00
2018-08-23T03:39:39.011Z,3.13
2018-08-23T03:44:42.577Z,2.87
2018-08-23T03:49:47.207Z,2.67
2018-08-23T03:54:59.595Z,3.17
2018-08-23T04:00:03.531Z,3.30
2018-08-23T04:05:14.283Z,3.62
2018-08-23T04:10:17.914Z,3.67
2018-08-23T04:15:24.770Z,3.27
2018-08-23T04:20:28.343Z,4.25
2018-08-23T04:25:32.044Z,4.12
2018-08-23T04:30:35.657Z,3.95
2018-08-23T04:35:39.127Z,3.87
2018-08-23T04:40:54.058Z,3.70
2018-08-23T04:45:58.113Z,3.65
2018-08-23T04:51:01.713Z,3.60
2018-08-23T04:56:05.609Z,3.83
2018-08-23T05:01:09.210Z,3.50
2018-08-23T05:06:12.675Z,4.05
2018-08-23T05:11:16.505Z,3.60
2018-08-23T05:16:19.950Z,3.67
2018-08-23T05:21:23.363Z,3.95
2018-08-23T05:26:26.877Z,4.20
2018-08-23T05:31:31.552Z,3.77
2018-08-23T05:36:35.142Z,3.22
2018-08-23T05:41:38.666Z,3.87
2018-08-23T05:46:49.197Z,3.50
2018-08-23T05:51:55.803Z,4.17
2018-08-23T05:56:59.489Z,4.05
2018-08-23T06:02:02.967Z,3.80
2018-08-23T06:07:06.601Z,3.85
2018-08-23T06:12:10.034Z,4.15
2018-08-23T06:17:13.527Z,3.83
2018-08-23T06:22:16.961Z,3.77
2018-08-23T06:27:20.434Z,3.90
2018-08-23T06:32:23.882Z,3.33
2018-08-23T06:37:27.481Z,4.58
2018-08-23T06:42:44.859Z,3.17
2018-08-23T06:47:52.682Z,3.70
2018-08-23T06:52:56.139Z,3.83
2018-08-23T06:57:59.627Z,4.03
2018-08-23T07:03:05.358Z,4.10
2018-08-23T07:08:09.001Z,3.42
2018-08-23T07:13:12.700Z,3.80
2018-08-23T07:18:20.718Z,3.25
2018-08-23T07:23:30.061Z,3.20
2018-08-23T07:28:35.061Z,3.35
2018-08-23T07:33:38.496Z,3.58
2018-08-23T07:38:41.964Z,3.80
2018-08-23T07:43:45.805Z,3.80
2018-08-23T07:48:49.285Z,3.20
2018-08-23T07:53:52.898Z,3.52
2018-08-23T07:58:57.850Z,3.42
2018-08-23T08:04:01.389Z,3.30
2018-08-23T08:09:09.317Z,3.62
2018-08-23T08:14:18.174Z,3.50
2018-08-23T08:19:21.698Z,3.60
2018-08-23T08:24:25.167Z,3.60
2018-08-23T08:29:33.909Z,3.52
2018-08-23T08:34:39.978Z,3.45
2018-08-23T08:39:43.513Z,3.27
2018-08-23T08:44:47.100Z,3.52
2018-08-23T08:49:50.831Z,3.02
2018-08-23T08:54:54.562Z,2.77
2018-08-23T08:59:58.114Z,3.45
2018-08-23T09:05:01.725Z,2.85
2018-08-23T09:10:06.024Z,3.22
2018-08-23T09:15:09.526Z,4.42
2018-08-23T09:20:18.628Z,3.87
2018-08-23T09:25:33.790Z,4.93
2018-08-23T09:30:37.308Z,4.55
2018-08-23T09:35:41.469Z,5.20
2018-08-23T09:40:44.989Z,4.78
2018-08-23T09:45:48.473Z,5.53
2018-08-23T09:50:52.156Z,4.90
2018-08-23T09:55:56.693Z,4.92
2018-08-23T10:01:05.458Z,5.00
2018-08-23T10:06:14.193Z,5.92
2018-08-23T10:11:23.187Z,4.80
2018-08-23T10:16:31.956Z,5.95
2018-08-23T10:21:40.909Z,5.65
2018-08-23T10:26:45.114Z,5.90
2018-08-23T10:31:48.584Z,5.72
2018-08-23T10:36:52.267Z,5.40
2018-08-23T10:41:55.722Z,6.47
2018-08-23T10:46:59.178Z,5.17
2018-08-23T10:52:02.670Z,6.17
2018-08-23T10:57:08.823Z,5.28
2018-08-23T11:02:12.302Z,5.70
2018-08-23T11:07:15.805Z,5.67
2018-08-23T11:12:24.561Z,5.20
2018-08-23T11:17:33.513Z,5.20
2018-08-23T11:22:37.858Z,5.70
2018-08-23T11:27:41.322Z,5.35
2018-08-23T11:32:45.214Z,5.58
2018-08-23T11:37:49.306Z,6.75
2018-08-23T11:42:52.997Z,5.92
2018-08-23T11:47:57.067Z,6.05
2018-08-23T11:53:00.683Z,4.90
2018-08-23T11:58:04.174Z,5.42
2018-08-23T12:03:07.790Z,5.47
2018-08-23T12:08:11.338Z,5.50
2018-08-23T12:13:15.139Z,5.80
2018-08-23T12:18:18.878Z,5.47
2018-08-23T12:23:22.570Z,4.55
2018-08-23T12:28:31.509Z,4.92
2018-08-23T12:33:35.266Z,5.53
2018-08-23T12:38:44.276Z,4.28
2018-08-23T12:43:49.136Z,5.17
2018-08-23T12:48:58.089Z,4.15
2018-08-23T12:54:01.889Z,4.25
2018-08-23T12:59:05.639Z,4.40
2018-08-23T13:04:09.338Z,4.33
2018-08-23T13:09:12.706Z,4.42
2018-08-23T13:14:16.256Z,4.90
2018-08-23T13:19:19.741Z,3.67
2018-08-23T13:24:23.475Z,3.75
2018-08-23T13:29:27.527Z,4.05
2018-08-23T13:34:31.029Z,4.78
2018-08-23T13:39:34.538Z,4.03
2018-08-23T13:44:38.078Z,3.67
2018-08-23T13:49:41.995Z,4.30
2018-08-23T13:54:46.850Z,3.85
2018-08-23T13:59:50.297Z,3.92
2018-08-23T14:04:53.950Z,3.67
2018-08-23T14:09:57.472Z,3.72
2018-08-23T14:15:01.179Z,3.55
2018-08-23T14:20:05.039Z,3.35
2018-08-23T14:25:08.637Z,3.50
2018-08-23T14:30:12.477Z,3.60
2018-08-23T14:35:16.973Z,3.30
2018-08-23T14:40:20.447Z,3.27
2018-08-23T14:45:31.764Z,3.03
2018-08-23T14:50:36.274Z,3.27
2018-08-23T14:55:45.090Z,3.30
2018-08-23T15:00:48.842Z,3.65
2018-08-23T15:05:52.956Z,3.83
2018-08-23T15:10:56.498Z,2.92
2018-08-23T15:16:00.643Z,3.05
2018-08-23T15:21:04.129Z,3.27
2018-08-23T15:26:07.680Z,2.90
2018-08-23T15:31:11.357Z,3.58
2018-08-23T15:36:15.034Z,3.02
2018-08-23T15:41:18.898Z,3.00
2018-08-23T15:46:24.107Z,2.85
2018-08-23T15:51:27.677Z,2.92
2018-08-23T15:56:31.272Z,2.72
2018-08-23T16:01:35.282Z,3.95
2018-08-23T16:06:38.740Z,7.40
2018-08-23T16:11:42.342Z,5.22
2018-08-23T16:18:57.222Z,5.80
2018-08-23T16:24:00.743Z,5.50
2018-08-23T16:29:04.598Z,5.37
2018-08-23T16:34:08.252Z,4.60
2018-08-23T16:39:11.880Z,4.05
2018-08-23T16:44:15.398Z,4.00
2018-08-23T16:49:19.333Z,4.78
2018-08-23T16:54:23.221Z,5.15
2018-08-23T16:59:26.998Z,4.37
2018-08-23T17:04:35.889Z,5.25
2018-08-23T17:09:39.556Z,6.20
2018-08-23T17:14:43.285Z,4.83
2018-08-23T17:19:47.124Z,4.85
2018-08-23T17:24:50.833Z,4.17
2018-08-23T17:29:54.750Z,4.45
2018-08-23T17:34:58.850Z,3.70
2018-08-23T17:40:02.794Z,3.27
2018-08-23T17:45:06.596Z,2.75
2018-08-23T17:50:10.557Z,2.80
2018-08-23T17:55:14.071Z,2.40
2018-08-23T18:00:17.787Z,3.30
2018-08-23T18:05:21.334Z,2.43
2018-08-23T18:10:24.790Z,3.37
2018-08-23T18:15:33.641Z,3.00
2018-08-23T18:20:37.143Z,2.83
2018-08-23T18:25:40.841Z,2.75
2018-08-23T18:30:44.254Z,2.52
2018-08-23T18:35:48.095Z,3.27
2018-08-23T18:40:53.095Z,3.02
2018-08-23T18:45:56.711Z,2.30
2018-08-23T18:51:00.698Z,2.67
2018-08-23T18:56:04.576Z,2.45
2018-08-23T19:01:08.261Z,3.00
2018-08-23T19:06:11.790Z,2.77
2018-08-23T19:11:16.596Z,3.08
2018-08-23T19:16:25.358Z,2.62
2018-08-23T19:21:29.249Z,2.90
2018-08-23T19:26:32.705Z,2.90
2018-08-23T19:31:36.195Z,2.42
2018-08-23T19:36:40.018Z,2.65
2018-08-23T19:41:44.348Z,2.60
2018-08-23T19:46:53.002Z,2.70
2018-08-23T19:51:56.794Z,2.75
2018-08-23T19:57:01.046Z,2.67
2018-08-23T20:02:04.940Z,3.15
2018-08-23T20:07:08.607Z,3.10
2018-08-23T20:12:12.614Z,2.65
2018-08-23T20:17:16.368Z,2.65
2018-08-23T20:22:19.901Z,3.17
2018-08-23T20:27:23.693Z,2.72
2018-08-23T20:32:27.535Z,2.40
2018-08-23T20:37:31.181Z,2.77
2018-08-23T20:42:35.134Z,2.72
2018-08-23T20:47:38.776Z,3.00
2018-08-23T20:52:42.490Z,2.83
2018-08-23T20:57:46.186Z,3.05
2018-08-23T21:02:49.864Z,2.95
2018-08-23T21:07:53.671Z,2.52
2018-08-23T21:12:57.578Z,3.33
2018-08-23T21:18:01.217Z,2.45
2018-08-23T21:23:05.137Z,2.60
2018-08-23T21:28:08.848Z,2.92
2018-08-23T21:33:12.363Z,3.05
2018-08-23T21:38:16.504Z,2.95
2018-08-23T21:43:20.363Z,2.40
2018-08-23T21:48:23.936Z,2.45
2018-08-23T21:53:27.550Z,2.85
2018-08-23T21:58:31.043Z,3.02
2018-08-23T22:03:35.002Z,2.87
2018-08-23T22:08:38.414Z,3.00
2018-08-23T22:13:41.915Z,2.83
2018-08-23T22:18:45.378Z,2.83
2018-08-23T22:23:49.208Z,2.87
2018-08-23T22:28:52.727Z,2.55
2018-08-23T22:33:56.390Z,3.17
2018-08-23T22:39:00.232Z,2.83
2018-08-23T22:44:04.107Z,2.85
2018-08-23T22:49:08.472Z,2.60
2018-08-23T22:54:12.514Z,2.83
2018-08-23T22:59:16.492Z,2.72
2018-08-23T23:04:25.165Z,2.80
2018-08-23T23:09:28.616Z,3.05
2018-08-23T23:14:32.210Z,3.05
2018-08-23T23:19:35.810Z,2.58
2018-08-23T23:24:44.940Z,3.15
2018-08-23T23:29:48.424Z,3.67
2018-08-23T23:34:52.069Z,3.25
2018-08-23T23:39:55.818Z,3.20
2018-08-23T23:44:59.821Z,3.02
2018-08-23T23:50:03.749Z,3.27
2018-08-23T23:55:07.339Z,3.00
